sensor_id;sensor_type;location;lat;lon;timestamp;P1;durP1;ratioP1;P2;durP2;ratioP2
56075;SDS011;41951;49.022;12.066;2022-12-10T00:01:13;25.08;;;13.07;;
56075;SDS011;41951;49.022;12.066;2022-12-10T00:03:40;24.17;;;13.43;;
56075;SDS011;41951;49.022;12.066;2022-12-10T00:06:09;28.27;;;14.52;;
56075;SDS011;41951;49.022;12.066;2022-12-10T00:08:37;27.05;;;14.75;;
56075;SDS011;41951;49.022;12.066;2022-12-10T00:11:04;26.42;;;13.35;;
56075;SDS011;41951;49.022;12.066;2022-12-10T00:13:32;24.42;;;13.70;;
56075;SDS011;41951;49.022;12.066;2022-12-10T00:15:59;27.10;;;14.93;;
56075;SDS011;41951;49.022;12.066;2022-12-10T00:18:25;28.20;;;13.93;;
56075;SDS011;41951;49.022;12.066;2022-12-10T00:20:51;25.00;;;14.15;;
56075;SDS011;41951;49.022;12.066;2022-12-10T00:23:16;27.58;;;13.10;;
56075;SDS011;41951;49.022;12.066;2022-12-10T00:25:42;27.98;;;13.95;;
56075;SDS011;41951;49.022;12.066;2022-12-10T00:28:07;29.80;;;14.18;;
56075;SDS011;41951;49.022;12.066;2022-12-10T00:30:33;29.10;;;15.02;;
56075;SDS011;41951;49.022;12.066;2022-12-10T00:32:59;29.83;;;15.27;;
56075;SDS011;41951;49.022;12.066;2022-12-10T00:35:24;25.20;;;13.88;;
56075;SDS011;41951;49.022;12.066;2022-12-10T00:37:50;27.80;;;14.40;;
56075;SDS011;41951;49.022;12.066;2022-12-10T00:40:16;29.15;;;15.23;;
56075;SDS011;41951;49.022;12.066;2022-12-10T00:42:41;26.58;;;14.52;;
56075;SDS011;41951;49.022;12.066;2022-12-10T00:45:07;26.50;;;14.55;;
56075;SDS011;41951;49.022;12.066;2022-12-10T00:47:33;27.60;;;14.35;;
56075;SDS011;41951;49.022;12.066;2022-12-10T00:49:58;27.08;;;14.65;;
56075;SDS011;41951;49.022;12.066;2022-12-10T00:52:24;26.33;;;13.57;;
56075;SDS011;41951;49.022;12.066;2022-12-10T00:54:49;26.83;;;14.35;;
56075;SDS011;41951;49.022;12.066;2022-12-10T00:57:15;27.67;;;13.75;;
56075;SDS011;41951;49.022;12.066;2022-12-10T00:59:41;27.48;;;13.38;;
56075;SDS011;41951;49.022;12.066;2022-12-10T01:02:06;26.67;;;14.75;;
56075;SDS011;41951;49.022;12.066;2022-12-10T01:04:32;27.85;;;14.70;;
56075;SDS011;41951;49.022;12.066;2022-12-10T01:06:57;24.42;;;13.23;;
56075;SDS011;41951;49.022;12.066;2022-12-10T01:09:25;27.60;;;14.48;;
56075;SDS011;41951;49.022;12.066;2022-12-10T01:11:53;28.65;;;14.60;;
56075;SDS011;41951;49.022;12.066;2022-12-10T01:14:24;27.30;;;14.55;;
56075;SDS011;41951;49.022;12.066;2022-12-10T01:16:55;32.08;;;14.65;;
56075;SDS011;41951;49.022;12.066;2022-12-10T01:19:23;24.05;;;12.73;;
56075;SDS011;41951;49.022;12.066;2022-12-10T01:21:49;26.75;;;13.68;;
56075;SDS011;41951;49.022;12.066;2022-12-10T01:24:16;28.27;;;15.27;;
56075;SDS011;41951;49.022;12.066;2022-12-10T01:26:41;30.67;;;15.50;;
56075;SDS011;41951;49.022;12.066;2022-12-10T01:29:07;26.35;;;13.85;;
56075;SDS011;41951;49.022;12.066;2022-12-10T01:31:34;26.55;;;14.05;;
56075;SDS011;41951;49.022;12.066;2022-12-10T01:34:01;27.83;;;14.73;;
56075;SDS011;41951;49.022;12.066;2022-12-10T01:36:32;26.75;;;14.75;;
56075;SDS011;41951;49.022;12.066;2022-12-10T01:38:59;27.33;;;13.60;;
56075;SDS011;41951;49.022;12.066;2022-12-10T01:41:31;27.58;;;14.80;;
56075;SDS011;41951;49.022;12.066;2022-12-10T01:44:53;28.23;;;14.90;;
56075;SDS011;41951;49.022;12.066;2022-12-10T01:46:54;27.20;;;14.75;;
56075;SDS011;41951;49.022;12.066;2022-12-10T01:49:31;33.00;;;15.73;;
56075;SDS011;41951;49.022;12.066;2022-12-10T01:51:59;28.83;;;14.80;;
56075;SDS011;41951;49.022;12.066;2022-12-10T01:54:27;28.48;;;15.43;;
56075;SDS011;41951;49.022;12.066;2022-12-10T01:56:59;28.27;;;15.10;;
56075;SDS011;41951;49.022;12.066;2022-12-10T01:59:27;29.80;;;15.35;;
56075;SDS011;41951;49.022;12.066;2022-12-10T02:02:12;30.40;;;17.48;;
56075;SDS011;41951;49.022;12.066;2022-12-10T02:07:42;30.48;;;15.40;;
56075;SDS011;41951;49.022;12.066;2022-12-10T02:10:34;32.35;;;15.93;;
56075;SDS011;41951;49.022;12.066;2022-12-10T02:13:08;31.70;;;16.02;;
56075;SDS011;41951;49.022;12.066;2022-12-10T02:15:58;34.53;;;16.30;;
56075;SDS011;41951;49.022;12.066;2022-12-10T02:19:36;31.33;;;16.55;;
56075;SDS011;41951;49.022;12.066;2022-12-10T02:21:34;37.15;;;16.95;;
56075;SDS011;41951;49.022;12.066;2022-12-10T02:24:03;34.17;;;16.13;;
56075;SDS011;41951;49.022;12.066;2022-12-10T02:26:40;32.30;;;16.08;;
56075;SDS011;41951;49.022;12.066;2022-12-10T02:31:46;31.30;;;15.88;;
56075;SDS011;41951;49.022;12.066;2022-12-10T02:34:15;33.10;;;17.58;;
56075;SDS011;41951;49.022;12.066;2022-12-10T02:36:43;33.13;;;17.30;;
56075;SDS011;41951;49.022;12.066;2022-12-10T02:39:11;34.97;;;17.67;;
56075;SDS011;41951;49.022;12.066;2022-12-10T02:41:40;34.22;;;17.67;;
56075;SDS011;41951;49.022;12.066;2022-12-10T02:44:10;32.77;;;17.07;;
56075;SDS011;41951;49.022;12.066;2022-12-10T02:46:38;32.92;;;16.85;;
56075;SDS011;41951;49.022;12.066;2022-12-10T02:49:07;29.25;;;16.02;;
56075;SDS011;41951;49.022;12.066;2022-12-10T02:51:33;35.92;;;17.77;;
56075;SDS011;41951;49.022;12.066;2022-12-10T02:54:00;31.38;;;16.50;;
56075;SDS011;41951;49.022;12.066;2022-12-10T02:56:50;36.60;;;17.50;;
56075;SDS011;41951;49.022;12.066;2022-12-10T03:01:54;35.30;;;17.63;;
56075;SDS011;41951;49.022;12.066;2022-12-10T03:06:51;37.92;;;17.77;;
56075;SDS011;41951;49.022;12.066;2022-12-10T03:11:48;31.15;;;16.38;;
56075;SDS011;41951;49.022;12.066;2022-12-10T03:16:55;30.60;;;15.73;;
56075;SDS011;41951;49.022;12.066;2022-12-10T03:19:26;31.58;;;16.52;;
56075;SDS011;41951;49.022;12.066;2022-12-10T03:22:03;34.58;;;17.30;;
56075;SDS011;41951;49.022;12.066;2022-12-10T03:24:30;34.50;;;16.77;;
56075;SDS011;41951;49.022;12.066;2022-12-10T03:26:57;34.13;;;17.08;;
56075;SDS011;41951;49.022;12.066;2022-12-10T03:29:24;37.05;;;18.20;;
56075;SDS011;41951;49.022;12.066;2022-12-10T03:31:53;32.88;;;16.98;;
56075;SDS011;41951;49.022;12.066;2022-12-10T03:34:20;34.45;;;16.20;;
56075;SDS011;41951;49.022;12.066;2022-12-10T03:36:47;36.58;;;18.55;;
56075;SDS011;41951;49.022;12.066;2022-12-10T03:39:14;33.40;;;18.20;;
56075;SDS011;41951;49.022;12.066;2022-12-10T03:41:41;39.88;;;18.67;;
56075;SDS011;41951;49.022;12.066;2022-12-10T03:44:06;35.22;;;18.08;;
56075;SDS011;41951;49.022;12.066;2022-12-10T03:46:32;36.00;;;17.10;;
56075;SDS011;41951;49.022;12.066;2022-12-10T03:48:58;38.05;;;18.65;;
56075;SDS011;41951;49.022;12.066;2022-12-10T03:51:25;36.25;;;18.67;;
56075;SDS011;41951;49.022;12.066;2022-12-10T03:53:51;36.55;;;18.05;;
56075;SDS011;41951;49.022;12.066;2022-12-10T03:56:17;42.40;;;18.92;;
56075;SDS011;41951;49.022;12.066;2022-12-10T03:58:44;38.83;;;18.90;;
56075;SDS011;41951;49.022;12.066;2022-12-10T04:01:10;34.90;;;18.70;;
56075;SDS011;41951;49.022;12.066;2022-12-10T04:03:36;36.03;;;19.25;;
56075;SDS011;41951;49.022;12.066;2022-12-10T04:06:04;41.42;;;18.77;;
56075;SDS011;41951;49.022;12.066;2022-12-10T04:08:34;39.88;;;18.52;;
56075;SDS011;41951;49.022;12.066;2022-12-10T04:11:03;37.28;;;18.75;;
56075;SDS011;41951;49.022;12.066;2022-12-10T04:13:31;41.85;;;19.02;;
56075;SDS011;41951;49.022;12.066;2022-12-10T04:16:16;38.80;;;19.20;;
56075;SDS011;41951;49.022;12.066;2022-12-10T04:18:58;37.13;;;19.25;;
56075;SDS011;41951;49.022;12.066;2022-12-10T04:21:35;39.43;;;19.40;;
56075;SDS011;41951;49.022;12.066;2022-12-10T04:24:22;36.00;;;18.10;;
56075;SDS011;41951;49.022;12.066;2022-12-10T04:27:09;41.10;;;20.60;;
56075;SDS011;41951;49.022;12.066;2022-12-10T04:29:37;38.53;;;19.48;;
56075;SDS011;41951;49.022;12.066;2022-12-10T04:32:04;38.25;;;19.55;;
56075;SDS011;41951;49.022;12.066;2022-12-10T04:34:30;38.22;;;18.30;;
56075;SDS011;41951;49.022;12.066;2022-12-10T04:36:57;36.85;;;19.33;;
56075;SDS011;41951;49.022;12.066;2022-12-10T04:39:23;40.72;;;19.83;;
56075;SDS011;41951;49.022;12.066;2022-12-10T04:41:49;41.65;;;20.08;;
56075;SDS011;41951;49.022;12.066;2022-12-10T04:44:16;37.70;;;19.20;;
56075;SDS011;41951;49.022;12.066;2022-12-10T04:46:43;41.80;;;19.00;;
56075;SDS011;41951;49.022;12.066;2022-12-10T04:49:10;36.90;;;18.33;;
56075;SDS011;41951;49.022;12.066;2022-12-10T04:51:36;40.00;;;20.02;;
56075;SDS011;41951;49.022;12.066;2022-12-10T04:54:02;40.45;;;20.13;;
56075;SDS011;41951;49.022;12.066;2022-12-10T04:56:29;38.42;;;19.55;;
56075;SDS011;41951;49.022;12.066;2022-12-10T04:58:55;43.75;;;20.00;;
56075;SDS011;41951;49.022;12.066;2022-12-10T05:01:21;43.40;;;20.35;;
56075;SDS011;41951;49.022;12.066;2022-12-10T05:03:47;41.50;;;21.38;;
56075;SDS011;41951;49.022;12.066;2022-12-10T05:06:13;38.55;;;18.30;;
56075;SDS011;41951;49.022;12.066;2022-12-10T05:08:40;39.92;;;20.30;;
56075;SDS011;41951;49.022;12.066;2022-12-10T05:11:08;40.15;;;19.35;;
56075;SDS011;41951;49.022;12.066;2022-12-10T05:13:39;46.88;;;21.15;;
56075;SDS011;41951;49.022;12.066;2022-12-10T05:16:05;42.03;;;20.33;;
56075;SDS011;41951;49.022;12.066;2022-12-10T05:18:33;45.92;;;21.27;;
56075;SDS011;41951;49.022;12.066;2022-12-10T05:21:03;45.53;;;20.50;;
56075;SDS011;41951;49.022;12.066;2022-12-10T05:23:31;47.70;;;21.50;;
56075;SDS011;41951;49.022;12.066;2022-12-10T05:26:04;41.67;;;19.80;;
56075;SDS011;41951;49.022;12.066;2022-12-10T05:28:31;40.47;;;20.58;;
56075;SDS011;41951;49.022;12.066;2022-12-10T05:30:59;45.15;;;22.30;;
56075;SDS011;41951;49.022;12.066;2022-12-10T05:33:25;41.47;;;20.33;;
56075;SDS011;41951;49.022;12.066;2022-12-10T05:35:55;47.63;;;22.88;;
56075;SDS011;41951;49.022;12.066;2022-12-10T05:40:48;42.53;;;21.35;;
56075;SDS011;41951;49.022;12.066;2022-12-10T05:43:14;41.05;;;21.55;;
56075;SDS011;41951;49.022;12.066;2022-12-10T05:45:39;43.30;;;21.58;;
56075;SDS011;41951;49.022;12.066;2022-12-10T05:48:05;43.55;;;20.38;;
56075;SDS011;41951;49.022;12.066;2022-12-10T05:50:32;46.65;;;20.52;;
56075;SDS011;41951;49.022;12.066;2022-12-10T05:52:57;44.00;;;20.75;;
56075;SDS011;41951;49.022;12.066;2022-12-10T05:55:23;40.95;;;19.40;;
56075;SDS011;41951;49.022;12.066;2022-12-10T05:57:49;42.88;;;21.08;;
56075;SDS011;41951;49.022;12.066;2022-12-10T06:00:15;45.35;;;20.55;;
56075;SDS011;41951;49.022;12.066;2022-12-10T06:02:41;44.42;;;21.30;;
56075;SDS011;41951;49.022;12.066;2022-12-10T06:05:06;43.53;;;22.40;;
56075;SDS011;41951;49.022;12.066;2022-12-10T06:07:32;46.33;;;21.13;;
56075;SDS011;41951;49.022;12.066;2022-12-10T06:09:58;85.32;;;34.55;;
56075;SDS011;41951;49.022;12.066;2022-12-10T06:12:23;95.25;;;35.90;;
56075;SDS011;41951;49.022;12.066;2022-12-10T06:14:49;67.60;;;28.27;;
56075;SDS011;41951;49.022;12.066;2022-12-10T06:17:14;64.22;;;26.92;;
56075;SDS011;41951;49.022;12.066;2022-12-10T06:19:40;54.40;;;25.45;;
56075;SDS011;41951;49.022;12.066;2022-12-10T06:22:05;49.28;;;23.27;;
56075;SDS011;41951;49.022;12.066;2022-12-10T06:24:31;47.15;;;22.15;;
56075;SDS011;41951;49.022;12.066;2022-12-10T06:26:56;45.63;;;21.02;;
56075;SDS011;41951;49.022;12.066;2022-12-10T06:29:22;44.40;;;20.95;;
56075;SDS011;41951;49.022;12.066;2022-12-10T06:31:48;48.92;;;22.38;;
56075;SDS011;41951;49.022;12.066;2022-12-10T06:34:13;45.10;;;21.25;;
56075;SDS011;41951;49.022;12.066;2022-12-10T06:36:39;46.47;;;21.08;;
56075;SDS011;41951;49.022;12.066;2022-12-10T06:39:05;52.55;;;22.35;;
56075;SDS011;41951;49.022;12.066;2022-12-10T06:41:30;46.50;;;22.42;;
56075;SDS011;41951;49.022;12.066;2022-12-10T06:43:56;44.05;;;22.60;;
56075;SDS011;41951;49.022;12.066;2022-12-10T06:46:23;45.33;;;21.65;;
56075;SDS011;41951;49.022;12.066;2022-12-10T06:48:50;50.30;;;22.05;;
56075;SDS011;41951;49.022;12.066;2022-12-10T06:51:16;46.75;;;23.27;;
56075;SDS011;41951;49.022;12.066;2022-12-10T06:53:44;47.22;;;22.58;;
56075;SDS011;41951;49.022;12.066;2022-12-10T06:56:11;46.90;;;23.58;;
56075;SDS011;41951;49.022;12.066;2022-12-10T06:58:38;51.60;;;22.92;;
56075;SDS011;41951;49.022;12.066;2022-12-10T07:01:13;41.08;;;21.15;;
56075;SDS011;41951;49.022;12.066;2022-12-10T07:03:41;45.85;;;23.67;;
56075;SDS011;41951;49.022;12.066;2022-12-10T07:06:07;44.53;;;21.83;;
56075;SDS011;41951;49.022;12.066;2022-12-10T07:08:35;45.00;;;23.80;;
56075;SDS011;41951;49.022;12.066;2022-12-10T07:11:05;42.85;;;20.63;;
56075;SDS011;41951;49.022;12.066;2022-12-10T07:15:57;44.45;;;21.85;;
56075;SDS011;41951;49.022;12.066;2022-12-10T07:18:23;48.83;;;23.13;;
56075;SDS011;41951;49.022;12.066;2022-12-10T07:20:48;46.33;;;22.35;;
56075;SDS011;41951;49.022;12.066;2022-12-10T07:23:14;49.80;;;23.30;;
56075;SDS011;41951;49.022;12.066;2022-12-10T07:25:39;49.40;;;22.45;;
56075;SDS011;41951;49.022;12.066;2022-12-10T07:28:05;47.92;;;22.65;;
56075;SDS011;41951;49.022;12.066;2022-12-10T07:30:31;48.13;;;23.35;;
56075;SDS011;41951;49.022;12.066;2022-12-10T07:32:57;49.38;;;22.70;;
56075;SDS011;41951;49.022;12.066;2022-12-10T07:35:22;49.08;;;22.55;;
56075;SDS011;41951;49.022;12.066;2022-12-10T07:37:48;46.53;;;21.65;;
56075;SDS011;41951;49.022;12.066;2022-12-10T07:40:13;49.60;;;23.83;;
56075;SDS011;41951;49.022;12.066;2022-12-10T07:42:39;47.28;;;22.50;;
56075;SDS011;41951;49.022;12.066;2022-12-10T07:45:04;51.55;;;22.05;;
56075;SDS011;41951;49.022;12.066;2022-12-10T07:47:30;46.95;;;21.85;;
56075;SDS011;41951;49.022;12.066;2022-12-10T07:49:56;50.75;;;24.05;;
56075;SDS011;41951;49.022;12.066;2022-12-10T07:52:21;48.08;;;23.02;;
56075;SDS011;41951;49.022;12.066;2022-12-10T07:54:47;46.58;;;21.48;;
56075;SDS011;41951;49.022;12.066;2022-12-10T07:57:13;48.30;;;23.17;;
56075;SDS011;41951;49.022;12.066;2022-12-10T07:59:39;44.95;;;21.25;;
56075;SDS011;41951;49.022;12.066;2022-12-10T08:02:04;48.83;;;22.33;;
56075;SDS011;41951;49.022;12.066;2022-12-10T08:04:30;50.05;;;22.60;;
56075;SDS011;41951;49.022;12.066;2022-12-10T08:06:55;49.53;;;23.45;;
56075;SDS011;41951;49.022;12.066;2022-12-10T08:09:22;43.03;;;20.35;;
56075;SDS011;41951;49.022;12.066;2022-12-10T08:11:48;44.10;;;21.45;;
56075;SDS011;41951;49.022;12.066;2022-12-10T08:14:14;43.95;;;21.65;;
56075;SDS011;41951;49.022;12.066;2022-12-10T08:16:39;49.85;;;23.40;;
56075;SDS011;41951;49.022;12.066;2022-12-10T08:19:05;47.78;;;22.58;;
56075;SDS011;41951;49.022;12.066;2022-12-10T08:21:31;46.75;;;21.17;;
56075;SDS011;41951;49.022;12.066;2022-12-10T08:23:57;42.80;;;20.83;;
56075;SDS011;41951;49.022;12.066;2022-12-10T08:26:24;46.35;;;21.90;;
56075;SDS011;41951;49.022;12.066;2022-12-10T08:28:52;45.97;;;21.33;;
56075;SDS011;41951;49.022;12.066;2022-12-10T08:31:19;45.70;;;21.17;;
56075;SDS011;41951;49.022;12.066;2022-12-10T08:33:45;42.65;;;20.77;;
56075;SDS011;41951;49.022;12.066;2022-12-10T08:36:12;40.78;;;19.05;;
56075;SDS011;41951;49.022;12.066;2022-12-10T08:38:40;40.25;;;19.25;;
56075;SDS011;41951;49.022;12.066;2022-12-10T08:41:07;44.80;;;21.65;;
56075;SDS011;41951;49.022;12.066;2022-12-10T08:43:34;44.95;;;21.90;;
56075;SDS011;41951;49.022;12.066;2022-12-10T08:45:59;51.33;;;22.75;;
56075;SDS011;41951;49.022;12.066;2022-12-10T08:48:25;46.58;;;20.77;;
56075;SDS011;41951;49.022;12.066;2022-12-10T08:50:51;49.63;;;21.80;;
56075;SDS011;41951;49.022;12.066;2022-12-10T08:53:16;48.33;;;21.55;;
56075;SDS011;41951;49.022;12.066;2022-12-10T08:55:42;40.75;;;21.13;;
56075;SDS011;41951;49.022;12.066;2022-12-10T08:58:08;42.95;;;21.25;;
56075;SDS011;41951;49.022;12.066;2022-12-10T09:00:35;50.75;;;23.58;;
56075;SDS011;41951;49.022;12.066;2022-12-10T09:03:01;43.45;;;20.80;;
56075;SDS011;41951;49.022;12.066;2022-12-10T09:05:26;43.75;;;21.30;;
56075;SDS011;41951;49.022;12.066;2022-12-10T09:07:52;43.60;;;20.83;;
56075;SDS011;41951;49.022;12.066;2022-12-10T09:10:18;45.08;;;21.55;;
56075;SDS011;41951;49.022;12.066;2022-12-10T09:12:43;47.15;;;21.63;;
56075;SDS011;41951;49.022;12.066;2022-12-10T09:15:09;43.28;;;20.40;;
56075;SDS011;41951;49.022;12.066;2022-12-10T09:17:35;41.50;;;19.95;;
56075;SDS011;41951;49.022;12.066;2022-12-10T09:20:03;43.20;;;20.25;;
56075;SDS011;41951;49.022;12.066;2022-12-10T09:22:30;42.63;;;20.67;;
56075;SDS011;41951;49.022;12.066;2022-12-10T09:24:56;44.35;;;20.98;;
56075;SDS011;41951;49.022;12.066;2022-12-10T09:27:21;41.42;;;19.70;;
56075;SDS011;41951;49.022;12.066;2022-12-10T09:29:47;41.92;;;20.23;;
56075;SDS011;41951;49.022;12.066;2022-12-10T09:32:13;41.55;;;19.98;;
56075;SDS011;41951;49.022;12.066;2022-12-10T09:34:38;42.95;;;22.33;;
56075;SDS011;41951;49.022;12.066;2022-12-10T09:37:04;41.92;;;19.98;;
56075;SDS011;41951;49.022;12.066;2022-12-10T09:39:29;43.72;;;20.95;;
56075;SDS011;41951;49.022;12.066;2022-12-10T09:47:16;41.30;;;19.33;;
56075;SDS011;41951;49.022;12.066;2022-12-10T09:52:15;40.67;;;19.05;;
56075;SDS011;41951;49.022;12.066;2022-12-10T09:54:45;44.47;;;21.83;;
56075;SDS011;41951;49.022;12.066;2022-12-10T09:57:31;42.60;;;20.15;;
56075;SDS011;41951;49.022;12.066;2022-12-10T10:00:03;37.95;;;19.83;;
56075;SDS011;41951;49.022;12.066;2022-12-10T10:02:47;40.13;;;19.35;;
56075;SDS011;41951;49.022;12.066;2022-12-10T10:05:21;42.42;;;19.40;;
56075;SDS011;41951;49.022;12.066;2022-12-10T10:08:05;39.88;;;19.00;;
56075;SDS011;41951;49.022;12.066;2022-12-10T10:10:37;44.88;;;20.70;;
56075;SDS011;41951;49.022;12.066;2022-12-10T10:15:35;41.85;;;18.67;;
56075;SDS011;41951;49.022;12.066;2022-12-10T10:18:03;39.85;;;19.63;;
56075;SDS011;41951;49.022;12.066;2022-12-10T10:20:50;36.50;;;18.73;;
56075;SDS011;41951;49.022;12.066;2022-12-10T10:23:16;44.30;;;19.83;;
56075;SDS011;41951;49.022;12.066;2022-12-10T10:25:42;37.90;;;18.42;;
56075;SDS011;41951;49.022;12.066;2022-12-10T10:28:13;37.95;;;19.23;;
56075;SDS011;41951;49.022;12.066;2022-12-10T10:30:43;41.35;;;20.15;;
56075;SDS011;41951;49.022;12.066;2022-12-10T10:33:10;40.95;;;20.02;;
56075;SDS011;41951;49.022;12.066;2022-12-10T10:35:45;41.90;;;20.23;;
56075;SDS011;41951;49.022;12.066;2022-12-10T10:38:18;38.80;;;19.20;;
56075;SDS011;41951;49.022;12.066;2022-12-10T10:40:55;39.90;;;18.75;;
56075;SDS011;41951;49.022;12.066;2022-12-10T10:43:27;42.55;;;19.92;;
56075;SDS011;41951;49.022;12.066;2022-12-10T10:48:36;40.17;;;19.15;;
56075;SDS011;41951;49.022;12.066;2022-12-10T10:51:15;47.08;;;22.80;;
56075;SDS011;41951;49.022;12.066;2022-12-10T10:53:52;42.28;;;20.33;;
56075;SDS011;41951;49.022;12.066;2022-12-10T10:56:20;42.45;;;20.73;;
56075;SDS011;41951;49.022;12.066;2022-12-10T11:01:17;43.22;;;20.25;;
56075;SDS011;41951;49.022;12.066;2022-12-10T11:03:47;38.42;;;20.42;;
56075;SDS011;41951;49.022;12.066;2022-12-10T11:06:24;39.90;;;18.57;;
56075;SDS011;41951;49.022;12.066;2022-12-10T11:08:51;41.03;;;19.73;;
56075;SDS011;41951;49.022;12.066;2022-12-10T11:11:22;40.00;;;21.00;;
56075;SDS011;41951;49.022;12.066;2022-12-10T11:17:30;39.22;;;19.33;;
56075;SDS011;41951;49.022;12.066;2022-12-10T11:22:22;46.17;;;21.45;;
56075;SDS011;41951;49.022;12.066;2022-12-10T11:24:58;30.13;;;15.77;;
56075;SDS011;41951;49.022;12.066;2022-12-10T11:30:40;40.10;;;19.38;;
56075;SDS011;41951;49.022;12.066;2022-12-10T11:33:24;40.03;;;20.83;;
56075;SDS011;41951;49.022;12.066;2022-12-10T11:36:10;46.05;;;21.85;;
56075;SDS011;41951;49.022;12.066;2022-12-10T11:44:39;44.42;;;21.30;;
56075;SDS011;41951;49.022;12.066;2022-12-10T12:00:23;38.80;;;19.15;;
56075;SDS011;41951;49.022;12.066;2022-12-10T12:16:26;37.25;;;18.65;;
56075;SDS011;41951;49.022;12.066;2022-12-10T12:19:05;37.85;;;19.60;;
56075;SDS011;41951;49.022;12.066;2022-12-10T12:21:38;38.80;;;19.05;;
56075;SDS011;41951;49.022;12.066;2022-12-10T12:26:47;42.50;;;19.83;;
56075;SDS011;41951;49.022;12.066;2022-12-10T12:29:21;38.42;;;19.83;;
56075;SDS011;41951;49.022;12.066;2022-12-10T12:31:59;36.75;;;18.48;;
56075;SDS011;41951;49.022;12.066;2022-12-10T12:34:40;35.33;;;18.67;;
56075;SDS011;41951;49.022;12.066;2022-12-10T12:37:14;34.72;;;18.42;;
56075;SDS011;41951;49.022;12.066;2022-12-10T12:39:48;36.08;;;18.63;;
56075;SDS011;41951;49.022;12.066;2022-12-10T12:42:26;38.22;;;18.45;;
56075;SDS011;41951;49.022;12.066;2022-12-10T12:45:02;33.95;;;18.02;;
56075;SDS011;41951;49.022;12.066;2022-12-10T12:47:41;40.20;;;18.10;;
56075;SDS011;41951;49.022;12.066;2022-12-10T12:50:30;33.90;;;17.30;;
56075;SDS011;41951;49.022;12.066;2022-12-10T12:53:05;34.95;;;18.42;;
56075;SDS011;41951;49.022;12.066;2022-12-10T13:00:58;39.08;;;19.23;;
56075;SDS011;41951;49.022;12.066;2022-12-10T13:03:39;38.45;;;18.67;;
56075;SDS011;41951;49.022;12.066;2022-12-10T13:06:16;38.17;;;18.50;;
56075;SDS011;41951;49.022;12.066;2022-12-10T13:11:38;32.67;;;16.63;;
56075;SDS011;41951;49.022;12.066;2022-12-10T13:19:15;34.65;;;17.48;;
56075;SDS011;41951;49.022;12.066;2022-12-10T13:24:20;32.22;;;15.48;;
56075;SDS011;41951;49.022;12.066;2022-12-10T13:42:36;31.92;;;16.27;;
56075;SDS011;41951;49.022;12.066;2022-12-10T13:45:29;28.30;;;14.90;;
56075;SDS011;41951;49.022;12.066;2022-12-10T13:48:16;28.45;;;14.50;;
56075;SDS011;41951;49.022;12.066;2022-12-10T13:53:24;30.17;;;15.25;;
56075;SDS011;41951;49.022;12.066;2022-12-10T14:01:46;30.80;;;14.63;;
56075;SDS011;41951;49.022;12.066;2022-12-10T14:06:50;32.70;;;16.38;;
56075;SDS011;41951;49.022;12.066;2022-12-10T14:09:30;56.58;;;29.55;;
56075;SDS011;41951;49.022;12.066;2022-12-10T14:12:04;33.00;;;16.52;;
56075;SDS011;41951;49.022;12.066;2022-12-10T14:14:39;27.25;;;14.73;;
56075;SDS011;41951;49.022;12.066;2022-12-10T14:17:50;30.77;;;16.50;;
56075;SDS011;41951;49.022;12.066;2022-12-10T14:20:02;28.15;;;14.82;;
56075;SDS011;41951;49.022;12.066;2022-12-10T14:22:38;32.60;;;15.00;;
56075;SDS011;41951;49.022;12.066;2022-12-10T14:25:49;27.80;;;14.90;;
56075;SDS011;41951;49.022;12.066;2022-12-10T14:28:17;27.67;;;14.05;;
56075;SDS011;41951;49.022;12.066;2022-12-10T14:30:44;31.17;;;14.95;;
56075;SDS011;41951;49.022;12.066;2022-12-10T14:33:18;30.73;;;15.57;;
56075;SDS011;41951;49.022;12.066;2022-12-10T14:35:49;30.08;;;14.98;;
56075;SDS011;41951;49.022;12.066;2022-12-10T14:38:20;28.58;;;13.98;;
56075;SDS011;41951;49.022;12.066;2022-12-10T14:40:54;26.17;;;13.75;;
56075;SDS011;41951;49.022;12.066;2022-12-10T14:43:21;31.40;;;14.23;;
56075;SDS011;41951;49.022;12.066;2022-12-10T14:45:54;25.27;;;14.23;;
56075;SDS011;41951;49.022;12.066;2022-12-10T14:48:22;27.85;;;15.15;;
56075;SDS011;41951;49.022;12.066;2022-12-10T14:50:49;30.60;;;14.68;;
56075;SDS011;41951;49.022;12.066;2022-12-10T14:53:16;29.52;;;15.30;;
56075;SDS011;41951;49.022;12.066;2022-12-10T14:55:49;29.67;;;14.68;;
56075;SDS011;41951;49.022;12.066;2022-12-10T14:58:19;27.50;;;14.30;;
56075;SDS011;41951;49.022;12.066;2022-12-10T15:00:52;48.72;;;23.35;;
56075;SDS011;41951;49.022;12.066;2022-12-10T15:03:29;34.25;;;17.13;;
56075;SDS011;41951;49.022;12.066;2022-12-10T15:06:00;40.13;;;20.00;;
56075;SDS011;41951;49.022;12.066;2022-12-10T15:08:32;31.77;;;16.67;;
56075;SDS011;41951;49.022;12.066;2022-12-10T15:10:58;31.33;;;16.10;;
56075;SDS011;41951;49.022;12.066;2022-12-10T15:13:39;33.60;;;15.68;;
56075;SDS011;41951;49.022;12.066;2022-12-10T15:16:14;33.60;;;16.67;;
56075;SDS011;41951;49.022;12.066;2022-12-10T15:18:45;28.73;;;14.20;;
56075;SDS011;41951;49.022;12.066;2022-12-10T15:21:13;34.67;;;17.67;;
56075;SDS011;41951;49.022;12.066;2022-12-10T15:23:42;32.28;;;16.52;;
56075;SDS011;41951;49.022;12.066;2022-12-10T15:26:12;31.95;;;16.25;;
56075;SDS011;41951;49.022;12.066;2022-12-10T15:28:45;34.58;;;17.13;;
56075;SDS011;41951;49.022;12.066;2022-12-10T15:33:52;33.50;;;16.27;;
56075;SDS011;41951;49.022;12.066;2022-12-10T15:38:54;32.60;;;15.85;;
56075;SDS011;41951;49.022;12.066;2022-12-10T15:41:24;30.33;;;17.17;;
56075;SDS011;41951;49.022;12.066;2022-12-10T15:47:18;31.95;;;16.40;;
56075;SDS011;41951;49.022;12.066;2022-12-10T15:49:46;31.83;;;15.88;;
56075;SDS011;41951;49.022;12.066;2022-12-10T15:52:13;29.15;;;15.15;;
56075;SDS011;41951;49.022;12.066;2022-12-10T15:54:43;32.35;;;15.88;;
56075;SDS011;41951;49.022;12.066;2022-12-10T15:57:24;27.73;;;14.38;;
56075;SDS011;41951;49.022;12.066;2022-12-10T15:59:53;31.08;;;15.15;;
56075;SDS011;41951;49.022;12.066;2022-12-10T16:04:59;29.35;;;14.63;;
56075;SDS011;41951;49.022;12.066;2022-12-10T16:07:25;36.58;;;19.58;;
56075;SDS011;41951;49.022;12.066;2022-12-10T16:09:51;31.48;;;15.63;;
56075;SDS011;41951;49.022;12.066;2022-12-10T16:12:17;27.35;;;14.93;;
56075;SDS011;41951;49.022;12.066;2022-12-10T16:14:47;31.73;;;16.52;;
56075;SDS011;41951;49.022;12.066;2022-12-10T16:17:15;28.17;;;14.10;;
56075;SDS011;41951;49.022;12.066;2022-12-10T16:19:42;27.05;;;13.77;;
56075;SDS011;41951;49.022;12.066;2022-12-10T16:22:08;31.20;;;14.57;;
56075;SDS011;41951;49.022;12.066;2022-12-10T16:24:34;31.73;;;15.23;;
56075;SDS011;41951;49.022;12.066;2022-12-10T16:26:59;31.25;;;14.82;;
56075;SDS011;41951;49.022;12.066;2022-12-10T16:29:25;30.05;;;15.88;;
56075;SDS011;41951;49.022;12.066;2022-12-10T16:31:50;37.08;;;17.13;;
56075;SDS011;41951;49.022;12.066;2022-12-10T16:34:16;32.22;;;15.07;;
56075;SDS011;41951;49.022;12.066;2022-12-10T16:36:42;28.15;;;14.45;;